Time;durP1;ratioP1;P1;durP2;ratioP2;P2;SDS_P1;SDS_P2;PMS_P1;PMS_P2;Temp;Humidity;BMP_temperature;BMP_pressure;BME280_temperature;BME280_humidity;BME280_pressure;Samples;Min_cycle;Max_cycle;Signal;HPM_P1;HPM_P2
2022/12/23 00:01:38;;;;;;;38.13;21.98;;;10.20;99.90;;;;;;5074646;28;20039;-85
2022/12/23 00:04:04;;;;;;;46.70;23.40;;;10.20;99.90;;;;;;5066097;28;20032;-84
2022/12/23 00:06:31;;;;;;;47.72;25.60;;;10.20;99.90;;;;;;5067542;28;20066;-84
2022/12/23 00:08:58;;;;;;;44.97;24.48;;;10.20;99.90;;;;;;5068438;28;20490;-84
2022/12/23 00:11:26;;;;;;;45.92;26.35;;;10.20;99.90;;;;;;5049137;28;20040;-84
2022/12/23 00:16:37;;;;;;;50.20;25.77;;;10.30;99.90;;;;;;5085862;28;20032;-83
2022/12/23 00:19:04;;;;;;;49.65;27.30;;;10.20;99.90;;;;;;5085560;28;20426;-83
2022/12/23 00:21:30;;;;;;;54.17;29.00;;;10.30;99.90;;;;;;5061463;28;20060;-84
2022/12/23 00:23:57;;;;;;;55.05;28.50;;;10.20;99.90;;;;;;5078873;28;20044;-83
2022/12/23 00:26:26;;;;;;;50.22;25.77;;;10.20;99.90;;;;;;5085478;28;20039;-85
2022/12/23 00:28:56;;;;;;;52.00;26.98;;;10.30;99.90;;;;;;5068395;28;20498;-83
2022/12/23 00:31:22;;;;;;;49.47;26.15;;;10.30;99.90;;;;;;5083952;28;20035;-84
2022/12/23 00:33:52;;;;;;;54.58;26.75;;;10.30;99.90;;;;;;5084332;28;20028;-82
2022/12/23 00:36:18;;;;;;;57.53;29.70;;;10.30;99.90;;;;;;5068266;28;20040;-84
2022/12/23 00:44:16;;;;;;;67.68;30.42;;;10.30;99.90;;;;;;5085327;28;20601;-85
2022/12/23 00:46:42;;;;;;;54.53;26.52;;;10.20;99.90;;;;;;5068769;28;20394;-85
2022/12/23 00:52:00;;;;;;;67.40;29.80;;;10.30;99.90;;;;;;5087620;28;20490;-85
2022/12/23 00:54:26;;;;;;;55.13;24.98;;;10.30;99.90;;;;;;5072850;28;20043;-85
2022/12/23 00:56:53;;;;;;;53.35;25.77;;;10.20;99.90;;;;;;5072722;28;20541;-84
2022/12/23 00:59:19;;;;;;;53.63;25.75;;;10.30;99.90;;;;;;5089038;28;20398;-84
2022/12/23 01:07:15;;;;;;;57.60;26.95;;;10.20;99.90;;;;;;5071659;28;20059;-83
2022/12/23 01:09:42;;;;;;;69.93;29.02;;;10.30;99.90;;;;;;5069543;28;20028;-84
2022/12/23 01:12:08;;;;;;;61.05;27.23;;;10.20;99.90;;;;;;5070841;28;20043;-84
2022/12/23 01:14:34;;;;;;;50.45;22.67;;;10.20;99.90;;;;;;5072181;28;20032;-84
2022/12/23 01:17:01;;;;;;;57.83;23.30;;;10.30;99.90;;;;;;5088372;28;20040;-83
2022/12/23 01:19:28;;;;;;;50.08;21.05;;;10.30;99.90;;;;;;5070826;28;20044;-83
2022/12/23 01:21:54;;;;;;;53.08;20.70;;;10.30;99.90;;;;;;5085427;28;20444;-79
2022/12/23 01:24:21;;;;;;;50.13;23.08;;;10.30;99.90;;;;;;5081657;28;20028;-81
2022/12/23 01:26:47;;;;;;;45.22;21.98;;;10.30;99.90;;;;;;5071740;28;20036;-82
2022/12/23 01:29:13;;;;;;;65.55;28.30;;;10.30;99.90;;;;;;5087960;28;20024;-81
2022/12/23 01:31:40;;;;;;;61.83;24.65;;;10.30;99.90;;;;;;5086486;28;20044;-79
2022/12/23 01:34:06;;;;;;;38.95;20.35;;;10.30;99.90;;;;;;5070898;28;20066;-81
2022/12/23 01:36:33;;;;;;;47.70;22.10;;;10.30;99.90;;;;;;5071278;28;20035;-81
2022/12/23 01:38:59;;;;;;;48.00;22.05;;;10.20;99.90;;;;;;5087046;28;20047;-80
2022/12/23 01:45:03;;;;;;;48.90;20.30;;;10.30;99.90;;;;;;5088587;28;20040;-81
2022/12/23 01:47:42;;;;;;;50.60;19.52;;;10.20;99.90;;;;;;5064333;28;20384;-81
2022/12/23 01:50:29;;;;;;;50.20;20.85;;;10.20;99.90;;;;;;5084582;28;20040;-80
2022/12/23 01:53:12;;;;;;;47.67;18.77;;;10.20;99.90;;;;;;5086906;28;20036;-80
2022/12/23 01:55:52;;;;;;;49.47;21.60;;;10.20;99.90;;;;;;5055912;28;20833;-79
2022/12/23 01:58:33;;;;;;;49.47;23.58;;;10.20;99.90;;;;;;5076563;28;20110;-81
2022/12/23 02:03:49;;;;;;;50.03;19.52;;;10.20;99.90;;;;;;5089240;28;20024;-79
2022/12/23 02:09:19;;;;;;;38.53;17.70;;;10.20;99.90;;;;;;5088251;28;20613;-80
2022/12/23 02:12:03;;;;;;;45.67;18.45;;;10.20;99.90;;;;;;5068016;28;20793;-80
2022/12/23 02:17:47;;;;;;;48.25;20.27;;;10.20;99.90;;;;;;5087704;28;20474;-81
2022/12/23 02:20:41;;;;;;;41.58;18.20;;;10.20;99.90;;;;;;5067324;28;20425;-80
2022/12/23 02:23:28;;;;;;;44.28;19.88;;;10.20;99.90;;;;;;5069718;28;20052;-80
2022/12/23 02:26:48;;;;;;;36.58;17.25;;;10.20;99.90;;;;;;5045973;28;20044;-80
2022/12/23 02:29:39;;;;;;;37.17;16.05;;;10.20;99.90;;;;;;5011178;28;20028;-80
2022/12/23 02:32:12;;;;;;;45.78;20.30;;;10.10;99.90;;;;;;5069357;28;20028;-80
2022/12/23 02:34:56;;;;;;;45.15;18.23;;;10.20;99.90;;;;;;5087159;28;20040;-79
2022/12/23 02:37:33;;;;;;;56.08;20.80;;;10.10;99.90;;;;;;5086512;28;20043;-79
2022/12/23 02:40:02;;;;;;;51.28;21.35;;;10.10;99.90;;;;;;5083335;28;20036;-79
2022/12/23 02:42:57;;;;;;;58.85;24.42;;;10.20;99.90;;;;;;5069644;28;20040;-80
2022/12/23 02:45:40;;;;;;;58.28;21.92;;;10.10;99.90;;;;;;5087232;28;20036;-80
2022/12/23 02:48:22;;;;;;;55.45;18.77;;;10.10;99.90;;;;;;5086055;28;20031;-80
2022/12/23 02:50:51;;;;;;;45.40;18.80;;;10.20;99.90;;;;;;5066602;28;20429;-80
2022/12/23 02:53:32;;;;;;;55.70;20.50;;;10.10;99.90;;;;;;5076392;28;20154;-81
2022/12/23 02:56:01;;;;;;;64.38;22.23;;;10.20;99.90;;;;;;5052805;28;20035;-80
2022/12/23 02:58:32;;;;;;;60.30;21.92;;;10.10;99.90;;;;;;5068964;28;20054;-80
2022/12/23 03:01:00;;;;;;;59.83;20.83;;;10.20;99.90;;;;;;5083249;28;20032;-80
2022/12/23 03:03:28;;;;;;;60.38;23.08;;;10.10;99.90;;;;;;5086272;28;20403;-81
2022/12/23 03:05:54;;;;;;;53.50;19.35;;;10.20;99.90;;;;;;5086003;28;20042;-79
2022/12/23 03:08:36;;;;;;;53.25;19.38;;;10.10;99.90;;;;;;5085942;28;20036;-81
2022/12/23 03:11:06;;;;;;;59.42;23.15;;;10.10;99.90;;;;;;5050362;28;20028;-80
2022/12/23 03:13:47;;;;;;;49.67;19.63;;;10.10;99.90;;;;;;5066077;28;20028;-80
2022/12/23 03:16:26;;;;;;;38.28;17.85;;;10.10;99.90;;;;;;5086198;28;20047;-80
2022/12/23 03:18:58;;;;;;;52.20;20.90;;;10.10;99.90;;;;;;5068387;28;20187;-81
2022/12/23 03:21:43;;;;;;;51.10;19.15;;;10.10;99.90;;;;;;5084466;28;20036;-81
2022/12/23 03:24:56;;;;;;;48.15;19.45;;;10.10;99.90;;;;;;5084258;28;20059;-80
2022/12/23 03:27:39;;;;;;;50.85;21.48;;;10.10;99.90;;;;;;5045160;28;20036;-80
2022/12/23 03:30:06;;;;;;;;;;;10.10;99.90;;;;;;5065780;28;20043;-79
2022/12/23 03:32:38;;;;;;;44.67;16.73;;;10.00;99.90;;;;;;5070178;28;19908;-81
2022/12/23 03:35:08;;;;;;;38.35;15.80;;;10.00;99.90;;;;;;5068977;28;20039;-79
2022/12/23 03:37:37;;;;;;;34.88;14.63;;;10.00;99.90;;;;;;5085398;28;20036;-80
2022/12/23 03:40:09;;;;;;;36.35;15.07;;;10.00;99.90;;;;;;5082767;28;20407;-81
2022/12/23 03:42:39;;;;;;;47.97;16.48;;;10.00;99.90;;;;;;5068952;28;20789;-81
2022/12/23 03:45:25;;;;;;;38.35;15.00;;;10.00;99.90;;;;;;5068527;28;20036;-80
2022/12/23 03:47:57;;;;;;;42.90;15.88;;;9.90;99.90;;;;;;5085608;28;20035;-80
2022/12/23 03:50:24;;;;;;;28.48;12.30;;;9.90;99.90;;;;;;5081482;28;20380;-81
2022/12/23 03:52:56;;;;;;;36.55;13.50;;;9.90;99.90;;;;;;5085036;28;20310;-81
2022/12/23 03:55:32;;;;;;;38.70;14.77;;;9.90;99.90;;;;;;5085466;28;20048;-81
2022/12/23 03:58:12;;;;;;;32.60;13.45;;;9.80;99.90;;;;;;5084968;28;20057;-79
2022/12/23 04:00:46;;;;;;;30.15;11.55;;;9.90;99.90;;;;;;5082146;28;20048;-81
2022/12/23 04:03:34;;;;;;;42.70;14.88;;;9.80;99.90;;;;;;5068316;28;20048;-80
2022/12/23 04:06:04;;;;;;;34.85;13.63;;;9.80;99.90;;;;;;5085275;28;20050;-81
2022/12/23 04:08:34;;;;;;;32.75;12.32;;;9.80;99.90;;;;;;5068356;28;20367;-80
2022/12/23 04:11:02;;;;;;;32.90;12.90;;;9.80;99.90;;;;;;5065022;28;20036;-80
2022/12/23 04:13:29;;;;;;;33.17;11.88;;;9.80;99.90;;;;;;5068084;28;20351;-80
2022/12/23 04:15:58;;;;;;;33.22;11.82;;;9.80;99.90;;;;;;5084912;28;20036;-80
2022/12/23 04:18:24;;;;;;;35.67;12.95;;;9.80;99.90;;;;;;5085095;28;20414;-80
2022/12/23 04:20:50;;;;;;;33.67;12.60;;;9.80;99.90;;;;;;5081920;28;20215;-80
2022/12/23 04:23:17;;;;;;;31.67;12.13;;;9.80;99.90;;;;;;5087109;28;20048;-80
2022/12/23 04:25:43;;;;;;;39.97;14.02;;;9.70;99.90;;;;;;5090436;28;20203;-80
2022/12/23 04:28:09;;;;;;;35.78;13.63;;;9.70;99.90;;;;;;5073956;28;20370;-81
2022/12/23 04:30:36;;;;;;;39.92;15.52;;;9.70;99.90;;;;;;5056981;28;20478;-80
2022/12/23 04:33:02;;;;;;;34.00;12.88;;;9.70;99.90;;;;;;5077637;28;20036;-80
2022/12/23 04:35:29;;;;;;;31.60;12.85;;;9.70;99.90;;;;;;5091890;28;20050;-80
2022/12/23 04:37:56;;;;;;;32.17;12.20;;;9.70;99.90;;;;;;5073620;28;20538;-80
2022/12/23 04:40:22;;;;;;;28.40;11.63;;;9.70;99.90;;;;;;5069346;28;20074;-79
2022/12/23 04:42:48;;;;;;;33.35;11.48;;;9.70;99.90;;;;;;5088828;28;20020;-80
2022/12/23 04:45:15;;;;;;;30.35;12.25;;;9.70;99.90;;;;;;5071994;28;20040;-79
2022/12/23 04:47:41;;;;;;;28.95;11.88;;;9.60;99.90;;;;;;5088296;28;20106;-80
2022/12/23 04:50:13;;;;;;;36.85;14.55;;;9.60;99.90;;;;;;5068599;28;20036;-79
2022/12/23 04:52:40;;;;;;;32.97;14.15;;;9.60;99.90;;;;;;5089203;28;20028;-79
2022/12/23 04:55:07;;;;;;;27.63;11.82;;;9.60;99.90;;;;;;5072090;28;20063;-79
2022/12/23 04:57:33;;;;;;;29.10;12.90;;;9.60;99.90;;;;;;5088835;28;20490;-80
2022/12/23 04:59:59;;;;;;;36.53;15.57;;;9.60;99.90;;;;;;5068525;28;20048;-80
2022/12/23 05:02:26;;;;;;;31.55;15.52;;;9.60;99.90;;;;;;5087229;28;20043;-79
2022/12/23 05:04:52;;;;;;;45.17;19.10;;;9.60;99.90;;;;;;5071445;28;20395;-80
2022/12/23 05:07:18;;;;;;;33.15;15.32;;;9.60;99.90;;;;;;5088395;28;20043;-79
2022/12/23 05:09:44;;;;;;;36.95;15.07;;;9.60;99.90;;;;;;5086051;28;20040;-79
2022/12/23 05:12:11;;;;;;;45.63;20.08;;;9.60;99.90;;;;;;5070884;28;20085;-79
2022/12/23 05:14:37;;;;;;;40.97;17.83;;;9.60;99.90;;;;;;5088276;28;20066;-81
2022/12/23 05:17:04;;;;;;;36.55;16.98;;;9.60;99.90;;;;;;5088281;28;20047;-80
2022/12/23 05:19:30;;;;;;;39.42;15.68;;;9.60;99.90;;;;;;5070142;28;20044;-78
2022/12/23 05:21:56;;;;;;;40.08;18.60;;;9.60;99.90;;;;;;5068774;28;20070;-79
2022/12/23 05:24:23;;;;;;;31.40;14.80;;;9.60;99.90;;;;;;5070995;28;20599;-78
2022/12/23 05:26:49;;;;;;;34.65;15.98;;;9.60;99.90;;;;;;5086475;28;20028;-80
2022/12/23 05:29:16;;;;;;;36.30;15.05;;;9.60;99.90;;;;;;5105196;28;20043;-78
2022/12/23 05:31:42;;;;;;;34.25;15.65;;;9.60;99.90;;;;;;5068348;28;20035;-79
2022/12/23 05:34:08;;;;;;;58.28;22.33;;;9.60;99.90;;;;;;5088708;28;20035;-79
2022/12/23 05:36:34;;;;;;;36.78;16.35;;;9.60;99.90;;;;;;5089582;28;20032;-80
2022/12/23 05:39:01;;;;;;;31.85;13.95;;;9.60;99.90;;;;;;5088090;28;20036;-80
2022/12/23 05:41:27;;;;;;;32.47;13.60;;;9.60;99.90;;;;;;5067890;28;20406;-79
2022/12/23 05:43:53;;;;;;;37.90;15.57;;;9.60;99.90;;;;;;5087952;28;20035;-79
2022/12/23 05:46:20;;;;;;;39.83;15.98;;;9.70;99.90;;;;;;5087592;28;20727;-79
2022/12/23 05:48:46;;;;;;;31.77;14.07;;;9.60;99.90;;;;;;5088246;28;20035;-80
2022/12/23 05:51:12;;;;;;;33.72;13.80;;;9.60;99.90;;;;;;5067504;28;20040;-79
2022/12/23 05:53:39;;;;;;;32.25;13.80;;;9.60;99.90;;;;;;5087834;28;20024;-79
2022/12/23 05:56:06;;;;;;;30.38;13.48;;;9.60;99.90;;;;;;5087827;28;20047;-79
2022/12/23 05:58:32;;;;;;;31.83;13.57;;;9.60;99.90;;;;;;5087353;28;20055;-79
2022/12/23 06:01:01;;;;;;;31.67;13.95;;;9.60;99.90;;;;;;5084460;28;20039;-79
2022/12/23 06:03:28;;;;;;;30.02;13.85;;;9.60;99.90;;;;;;5087351;28;20360;-80
2022/12/23 06:05:54;;;;;;;28.92;13.32;;;9.60;99.90;;;;;;5086948;28;20046;-78
2022/12/23 06:08:20;;;;;;;31.98;12.73;;;9.60;99.90;;;;;;5087270;28;20516;-79
2022/12/23 06:10:47;;;;;;;24.17;10.65;;;9.60;99.90;;;;;;5067132;28;20036;-79
2022/12/23 06:13:13;;;;;;;32.97;13.93;;;9.60;99.90;;;;;;5069894;28;20031;-79
2022/12/23 06:15:40;;;;;;;25.23;11.38;;;9.60;99.90;;;;;;5069820;28;20036;-79
2022/12/23 06:18:06;;;;;;;35.00;13.00;;;9.60;99.90;;;;;;5070190;28;20490;-79
2022/12/23 06:20:33;;;;;;;27.00;11.15;;;9.60;99.90;;;;;;5083778;28;20059;-80
2022/12/23 06:22:59;;;;;;;30.40;11.98;;;9.60;99.90;;;;;;5087385;28;20044;-81
2022/12/23 06:25:25;;;;;;;31.85;13.05;;;9.60;99.90;;;;;;5067564;28;20047;-81
2022/12/23 06:27:51;;;;;;;29.70;12.30;;;9.60;99.90;;;;;;5068773;28;20126;-80
2022/12/23 06:30:18;;;;;;;40.45;13.57;;;9.60;99.90;;;;;;5066534;28;20043;-80
2022/12/23 06:32:44;;;;;;;42.53;14.25;;;9.60;99.90;;;;;;5085822;28;20032;-81
2022/12/23 06:35:11;;;;;;;34.28;12.80;;;9.60;99.90;;;;;;5081050;28;20036;-80
2022/12/23 06:37:37;;;;;;;32.72;11.27;;;9.60;99.90;;;;;;5087336;28;20055;-82
2022/12/23 06:40:04;;;;;;;46.53;14.75;;;9.60;99.90;;;;;;5069103;28;20046;-81
2022/12/23 06:42:30;;;;;;;44.53;13.05;;;9.60;99.90;;;;;;5081083;28;20513;-81
2022/12/23 06:44:57;;;;;;;41.95;13.77;;;9.60;99.90;;;;;;5067811;28;20035;-81
2022/12/23 06:47:23;;;;;;;37.33;11.80;;;9.60;99.90;;;;;;5084657;28;20028;-81
2022/12/23 06:49:49;;;;;;;34.72;12.30;;;9.60;99.90;;;;;;5064883;28;20039;-80
2022/12/23 06:52:16;;;;;;;36.00;12.00;;;9.60;99.90;;;;;;5067675;28;20679;-81
2022/12/23 06:54:42;;;;;;;41.65;13.40;;;9.60;99.90;;;;;;5070908;28;20054;-81
2022/12/23 06:57:08;;;;;;;43.97;13.38;;;9.60;99.90;;;;;;5068567;28;20505;-81
2022/12/23 06:59:35;;;;;;;41.28;12.45;;;9.60;99.90;;;;;;5067023;28;20039;-80
2022/12/23 07:02:02;;;;;;;35.10;11.18;;;9.60;99.90;;;;;;5081655;28;20032;-81
2022/12/23 07:04:28;;;;;;;36.40;12.02;;;9.50;99.90;;;;;;5067867;28;20039;-81
2022/12/23 07:06:55;;;;;;;32.92;10.85;;;9.50;99.90;;;;;;5087129;28;20047;-81
2022/12/23 07:09:21;;;;;;;36.47;11.73;;;9.50;99.90;;;;;;5086405;28;20035;-81
2022/12/23 07:11:47;;;;;;;38.00;12.02;;;9.50;99.90;;;;;;5081017;28;20032;-79
2022/12/23 07:14:14;;;;;;;29.85;10.07;;;9.50;99.90;;;;;;5069881;28;20031;-81
2022/12/23 07:16:40;;;;;;;26.30;9.10;;;9.50;99.90;;;;;;5088175;28;20044;-80
2022/12/23 07:19:07;;;;;;;34.92;10.88;;;9.50;99.90;;;;;;5071197;28;20039;-81
2022/12/23 07:21:33;;;;;;;38.78;12.70;;;9.50;99.90;;;;;;5064716;28;20055;-80
2022/12/23 07:23:59;;;;;;;39.67;12.55;;;9.50;99.90;;;;;;5051157;28;20391;-81
2022/12/23 07:26:26;;;;;;;36.42;12.55;;;9.50;99.90;;;;;;5088133;28;20028;-80
2022/12/23 07:28:52;;;;;;;31.50;10.98;;;9.50;99.90;;;;;;5069137;28;20024;-80
2022/12/23 07:31:18;;;;;;;39.72;12.43;;;9.50;99.90;;;;;;5063198;28;20441;-79
2022/12/23 07:33:45;;;;;;;61.05;18.13;;;9.50;99.90;;;;;;5068592;28;20138;-80
2022/12/23 07:36:11;;;;;;;52.65;17.52;;;9.50;99.90;;;;;;5068635;28;20032;-80
2022/12/23 07:38:37;;;;;;;45.42;16.35;;;9.50;99.90;;;;;;5068086;28;20036;-82
2022/12/23 07:41:04;;;;;;;46.72;15.07;;;9.50;99.90;;;;;;5063301;28;20490;-81
2022/12/23 07:43:30;;;;;;;43.45;14.52;;;9.50;99.90;;;;;;5085756;28;20039;-80
2022/12/23 07:45:57;;;;;;;42.55;14.20;;;9.50;99.90;;;;;;5063694;28;20032;-82
2022/12/23 07:48:23;;;;;;;46.08;14.23;;;9.50;99.90;;;;;;5066265;28;20064;-81
2022/12/23 07:50:50;;;;;;;40.17;14.23;;;9.60;99.90;;;;;;5078602;28;20039;-81
2022/12/23 07:53:16;;;;;;;45.03;14.77;;;9.60;99.90;;;;;;5063430;28;20731;-82
2022/12/23 07:55:42;;;;;;;45.63;15.18;;;9.60;99.90;;;;;;5064797;28;20032;-83
2022/12/23 07:58:09;;;;;;;42.60;13.75;;;9.60;99.90;;;;;;5084025;28;20039;-80
2022/12/23 08:00:35;;;;;;;46.88;13.68;;;9.60;99.90;;;;;;5079668;28;20040;-81
2022/12/23 08:03:02;;;;;;;43.80;14.18;;;9.60;99.90;;;;;;5069379;28;20051;-80
2022/12/23 08:05:28;;;;;;;45.60;14.70;;;9.60;99.90;;;;;;5068428;28;20039;-80
2022/12/23 08:07:54;;;;;;;47.90;13.65;;;9.60;99.90;;;;;;5069237;28;20032;-80
2022/12/23 08:10:21;;;;;;;47.83;14.43;;;9.60;99.90;;;;;;5052217;28;20494;-81
2022/12/23 08:12:47;;;;;;;47.20;14.52;;;9.60;99.90;;;;;;5051992;28;20036;-80
2022/12/23 08:15:14;;;;;;;43.40;13.27;;;9.60;99.90;;;;;;5068284;28;20044;-81
2022/12/23 08:17:40;;;;;;;44.97;15.35;;;9.60;99.90;;;;;;5067572;28;20032;-79
2022/12/23 08:20:07;;;;;;;48.65;15.07;;;9.60;99.90;;;;;;5079679;28;20032;-79
2022/12/23 08:22:33;;;;;;;48.90;14.13;;;9.60;99.90;;;;;;5067889;28;20048;-79
2022/12/23 08:24:59;;;;;;;45.47;13.40;;;9.70;99.90;;;;;;5085271;28;20031;-80
2022/12/23 08:27:26;;;;;;;43.30;15.18;;;9.60;99.90;;;;;;5082947;28;20032;-80
2022/12/23 08:29:53;;;;;;;49.85;14.73;;;9.70;99.90;;;;;;5063320;28;20047;-78
2022/12/23 08:32:19;;;;;;;50.53;16.30;;;9.70;99.90;;;;;;5065034;28;20055;-78
2022/12/23 08:34:45;;;;;;;50.28;16.40;;;9.70;99.90;;;;;;5066546;28;20032;-79
2022/12/23 08:37:12;;;;;;;55.25;15.77;;;9.70;99.90;;;;;;5066000;28;20036;-79
2022/12/23 08:39:38;;;;;;;54.45;15.20;;;9.70;99.90;;;;;;5048662;28;20044;-78
2022/12/23 08:42:04;;;;;;;49.90;16.40;;;9.70;99.90;;;;;;5074713;28;20028;-78
2022/12/23 08:44:31;;;;;;;66.18;17.45;;;9.70;99.90;;;;;;5077746;28;20036;-78
2022/12/23 08:46:57;;;;;;;60.65;16.90;;;9.70;99.90;;;;;;5066916;28;20043;-82
2022/12/23 08:49:24;;;;;;;51.90;15.32;;;9.70;99.90;;;;;;5079689;28;20055;-84
2022/12/23 08:51:50;;;;;;;59.80;18.33;;;9.70;99.90;;;;;;5057867;28;20035;-82
2022/12/23 08:54:19;;;;;;;56.30;16.92;;;9.70;99.90;;;;;;5063388;28;20040;-82
2022/12/23 08:56:45;;;;;;;56.17;17.63;;;9.70;99.90;;;;;;5048330;28;20035;-83
2022/12/23 08:59:14;;;;;;;52.97;18.33;;;9.70;99.90;;;;;;5077459;28;20059;-82
2022/12/23 09:01:41;;;;;;;46.75;15.57;;;9.70;99.90;;;;;;5060844;28;20028;-78
2022/12/23 09:04:07;;;;;;;54.63;17.20;;;9.70;99.90;;;;;;5083061;28;20036;-78
2022/12/23 09:06:37;;;;;;;54.05;18.17;;;9.80;99.90;;;;;;5084237;28;20063;-77
2022/12/23 09:09:04;;;;;;;54.58;16.27;;;9.70;99.90;;;;;;5083199;28;20035;-78
2022/12/23 09:11:31;;;;;;;55.70;16.58;;;9.80;99.90;;;;;;5063249;28;20032;-77
2022/12/23 09:13:59;;;;;;;56.03;16.38;;;9.80;99.90;;;;;;5083969;28;20031;-78
2022/12/23 09:16:27;;;;;;;54.67;16.25;;;9.80;99.90;;;;;;5084231;28;20047;-77
2022/12/23 09:18:53;;;;;;;57.67;17.45;;;9.80;99.90;;;;;;5070367;28;20590;-79
2022/12/23 09:21:21;;;;;;;48.65;15.40;;;9.80;99.90;;;;;;5064867;28;20040;-77
2022/12/23 09:23:48;;;;;;;49.60;15.95;;;9.70;99.90;;;;;;5086517;28;20504;-77
2022/12/23 09:26:20;;;;;;;56.72;15.40;;;9.70;99.90;;;;;;5088363;28;20044;-77
2022/12/23 09:28:47;;;;;;;56.95;15.20;;;9.70;99.90;;;;;;5071161;28;20032;-78
2022/12/23 09:31:14;;;;;;;58.88;17.65;;;9.70;99.90;;;;;;5065386;28;20043;-78
2022/12/23 09:33:41;;;;;;;61.42;17.20;;;9.70;99.90;;;;;;5071028;28;20039;-78
2022/12/23 09:36:07;;;;;;;45.85;15.50;;;9.70;99.90;;;;;;5084538;28;20398;-79
2022/12/23 09:38:34;;;;;;;63.83;20.08;;;9.70;99.90;;;;;;5084798;28;20063;-80
2022/12/23 09:41:28;;;;;;;63.70;17.73;;;9.70;99.90;;;;;;5078250;28;20551;-79
2022/12/23 09:44:19;;;;;;;65.32;16.25;;;9.70;99.90;;;;;;5088567;28;20032;-79
2022/12/23 09:46:53;;;;;;;53.25;15.32;;;9.70;99.90;;;;;;5102161;28;20035;-80
2022/12/23 09:49:22;;;;;;;51.60;14.05;;;9.70;99.90;;;;;;5084813;28;20391;-79
2022/12/23 09:51:52;;;;;;;73.90;16.23;;;9.70;99.90;;;;;;5068331;28;20032;-80
2022/12/23 09:54:24;;;;;;;68.68;15.45;;;9.70;99.90;;;;;;5073148;28;20035;-79
2022/12/23 09:56:59;;;;;;;64.97;17.00;;;9.70;99.90;;;;;;5089406;28;20043;-79
2022/12/23 09:59:50;;;;;;;71.43;16.65;;;9.80;99.90;;;;;;5090650;28;20043;-79
2022/12/23 10:02:27;;;;;;;65.15;15.48;;;9.80;99.90;;;;;;5069286;28;20044;-80
2022/12/23 10:05:12;;;;;;;57.47;15.45;;;9.80;99.90;;;;;;5070331;28;20436;-79
2022/12/23 10:07:45;;;;;;;48.67;15.38;;;9.80;99.90;;;;;;5088911;28;20036;-80
2022/12/23 10:10:44;;;;;;;56.45;14.90;;;9.80;99.90;;;;;;5065005;28;20048;-82
2022/12/23 10:13:34;;;;;;;60.35;14.93;;;9.80;99.90;;;;;;5088631;28;20050;-81
2022/12/23 10:16:10;;;;;;;78.53;16.70;;;9.80;99.90;;;;;;5070350;28;20501;-81
2022/12/23 10:18:47;;;;;;;60.28;16.02;;;9.70;99.90;;;;;;5068350;28;20027;-82
2022/12/23 10:21:39;;;;;;;60.78;15.48;;;9.70;99.90;;;;;;5062589;28;20040;-82
2022/12/23 10:24:33;;;;;;;67.80;15.00;;;9.70;99.90;;;;;;5044773;28;20047;-81
2022/12/23 10:27:04;;;;;;;87.40;15.40;;;9.70;99.90;;;;;;5080410;28;20548;-80
2022/12/23 10:29:32;;;;;;;118.07;16.33;;;9.70;99.90;;;;;;5083438;28;20028;-79
2022/12/23 10:32:20;;;;;;;99.35;18.30;;;9.70;99.90;;;;;;5077729;28;20286;-79
2022/12/23 10:35:12;;;;;;;77.35;18.65;;;9.70;99.90;;;;;;5062102;28;20781;-81
2022/12/23 10:37:50;;;;;;;103.60;19.07;;;9.70;99.90;;;;;;5081267;28;20043;-80
2022/12/23 10:40:34;;;;;;;93.13;19.52;;;9.70;99.90;;;;;;5077664;28;20036;-81
2022/12/23 10:43:38;;;;;;;80.68;18.65;;;9.70;99.90;;;;;;5084323;28;20032;-82
2022/12/23 10:46:55;;;;;;;135.23;24.77;;;9.80;99.90;;;;;;5023171;28;20048;-81
2022/12/23 10:49:48;;;;;;;105.72;20.92;;;9.70;99.90;;;;;;5070538;28;20447;-81
2022/12/23 10:52:19;;;;;;;104.00;21.17;;;9.70;99.90;;;;;;5063197;28;20479;-80
2022/12/23 10:54:46;;;;;;;100.40;20.75;;;9.80;99.90;;;;;;5079661;28;20028;-81
2022/12/23 10:57:15;;;;;;;100.95;21.50;;;9.80;99.90;;;;;;5096428;28;20032;-81
2022/12/23 10:59:42;;;;;;;112.47;22.80;;;9.80;99.90;;;;;;5076180;28;20040;-81
2022/12/23 11:02:12;;;;;;;106.95;21.63;;;9.80;99.90;;;;;;5063324;28;20047;-81
2022/12/23 11:04:44;;;;;;;93.45;20.58;;;9.80;99.90;;;;;;5066707;28;20035;-81
2022/12/23 11:07:14;;;;;;;88.50;19.40;;;9.80;99.90;;;;;;5082741;28;20036;-80
2022/12/23 11:09:44;;;;;;;70.43;17.55;;;9.90;99.90;;;;;;5082933;28;20035;-81
2022/12/23 11:12:12;;;;;;;93.30;20.88;;;9.90;99.90;;;;;;5097312;28;20474;-80
2022/12/23 11:14:53;;;;;;;80.55;18.30;;;9.90;99.90;;;;;;5079227;28;20028;-80
2022/12/23 11:17:29;;;;;;;92.15;21.55;;;9.90;99.90;;;;;;5066220;28;20035;-80
2022/12/23 11:20:16;;;;;;;90.60;21.70;;;9.90;99.90;;;;;;5062945;28;20039;-80
2022/12/23 11:22:53;;;;;;;78.35;19.13;;;10.00;99.90;;;;;;5082757;28;20391;-82
2022/12/23 11:25:39;;;;;;;90.40;21.10;;;10.00;99.90;;;;;;5065848;28;20036;-81
2022/12/23 11:28:20;;;;;;;94.10;22.63;;;10.00;99.90;;;;;;5098904;28;20039;-82
2022/12/23 11:30:49;;;;;;;89.72;22.20;;;10.00;99.90;;;;;;5077109;28;20032;-80
2022/12/23 11:33:32;;;;;;;138.35;36.72;;;10.00;99.90;;;;;;5083851;28;20043;-80
2022/12/23 11:36:06;;;;;;;95.28;25.02;;;10.00;99.90;;;;;;5083633;28;20422;-80
2022/12/23 11:38:35;;;;;;;138.20;32.53;;;10.00;99.90;;;;;;5085135;28;20437;-84
2022/12/23 11:41:03;;;;;;;122.85;27.55;;;10.10;99.90;;;;;;5060654;28;20595;-79
2022/12/23 11:43:32;;;;;;;113.88;27.27;;;10.10;99.90;;;;;;5095720;28;20025;-81
2022/12/23 11:46:17;;;;;;;134.95;30.13;;;10.10;99.90;;;;;;5080652;28;20028;-81
2022/12/23 11:48:45;;;;;;;108.57;26.20;;;10.10;99.90;;;;;;5095145;28;20044;-79
2022/12/23 11:51:11;;;;;;;116.43;26.25;;;10.10;99.90;;;;;;5064122;28;20035;-83
2022/12/23 11:53:41;;;;;;;98.57;23.85;;;10.10;99.90;;;;;;5077346;28;20513;-80
2022/12/23 11:56:10;;;;;;;124.43;28.90;;;10.10;99.90;;;;;;5081852;28;20040;-82
2022/12/23 11:59:01;;;;;;;143.43;32.22;;;10.10;99.90;;;;;;5080555;28;20031;-82
2022/12/23 12:01:27;;;;;;;135.90;31.73;;;10.10;99.90;;;;;;5078861;28;20048;-83
2022/12/23 12:04:00;;;;;;;121.15;28.35;;;10.10;99.90;;;;;;5085256;28;20524;-83
2022/12/23 12:06:28;;;;;;;129.98;29.60;;;10.10;99.90;;;;;;5084776;28;20534;-84
2022/12/23 12:08:58;;;;;;;137.15;30.08;;;10.10;99.90;;;;;;5101624;28;20047;-81
2022/12/23 12:11:27;;;;;;;131.98;32.00;;;10.10;99.90;;;;;;5080647;28;20028;-86
2022/12/23 12:13:58;;;;;;;115.68;27.90;;;10.00;99.90;;;;;;5068703;28;20036;-84
2022/12/23 12:16:46;;;;;;;87.40;22.60;;;10.00;99.90;;;;;;5066762;28;20118;-85
2022/12/23 12:19:19;;;;;;;130.93;29.67;;;10.00;99.90;;;;;;5067366;28;20406;-85
2022/12/23 12:21:48;;;;;;;127.85;28.75;;;10.00;99.90;;;;;;5075792;28;20530;-85
2022/12/23 12:24:27;;;;;;;117.40;27.02;;;10.00;99.90;;;;;;5049955;28;20274;-86
2022/12/23 12:27:00;;;;;;;124.05;29.17;;;10.00;99.90;;;;;;5081785;28;20036;-88
2022/12/23 12:29:38;;;;;;;116.32;29.60;;;10.00;99.90;;;;;;5052269;28;20036;-83
2022/12/23 12:32:13;;;;;;;114.25;30.90;;;10.00;99.90;;;;;;5066384;28;20036;-87
2022/12/23 12:34:51;;;;;;;101.63;28.63;;;10.00;99.90;;;;;;5069986;28;20470;-81
2022/12/23 12:37:40;;;;;;;97.20;24.42;;;10.00;99.90;;;;;;5079420;28;20028;-81
2022/12/23 12:40:30;;;;;;;122.32;31.55;;;10.00;99.90;;;;;;5062009;28;20052;-80
2022/12/23 12:43:24;;;;;;;110.75;31.73;;;10.00;99.90;;;;;;5082484;28;21104;-81
2022/12/23 12:46:01;;;;;;;120.22;31.83;;;10.00;99.90;;;;;;5062911;28;20373;-85
2022/12/23 12:48:41;;;;;;;112.13;30.98;;;10.00;99.90;;;;;;5079296;28;20044;-86
2022/12/23 12:51:39;;;;;;;87.07;28.85;;;10.00;99.90;;;;;;5049091;28;20036;-83
2022/12/23 12:54:05;;;;;;;85.88;26.38;;;10.00;99.90;;;;;;5083990;28;20504;-84
2022/12/23 12:57:11;;;;;;;89.75;26.10;;;9.90;99.90;;;;;;5085838;28;20033;-84
2022/12/23 12:59:39;;;;;;;100.03;27.10;;;9.90;99.90;;;;;;5063745;28;20048;-82
2022/12/23 13:02:37;;;;;;;103.90;28.13;;;9.90;99.90;;;;;;5076675;28;20413;-85
2022/12/23 13:05:14;;;;;;;115.32;31.80;;;9.90;99.90;;;;;;5086393;28;20572;-85
2022/12/23 13:07:43;;;;;;;89.35;27.70;;;9.90;99.90;;;;;;5069413;28;20063;-85
2022/12/23 13:10:26;;;;;;;90.20;27.23;;;9.90;99.90;;;;;;5077591;28;20498;-85
2022/12/23 13:12:58;;;;;;;74.97;26.15;;;9.90;99.90;;;;;;5051299;28;20035;-86
2022/12/23 13:15:58;;;;;;;77.23;28.00;;;9.90;99.90;;;;;;5066126;28;20505;-85
2022/12/23 13:18:35;;;;;;;82.03;27.52;;;9.80;99.90;;;;;;5082008;28;20819;-84
2022/12/23 13:21:11;;;;;;;105.57;30.55;;;9.80;99.90;;;;;;5088962;28;20443;-87
2022/12/23 13:24:01;;;;;;;76.20;27.42;;;9.80;99.90;;;;;;5098558;27;20052;-86
2022/12/23 13:26:38;;;;;;;68.90;27.23;;;9.80;99.90;;;;;;5062313;28;20033;-87